createdAt,value
2018-04-10T00:00:41.442Z,14.90
2018-04-10T00:03:09.738Z,14.90
2018-04-10T00:05:38.006Z,14.90
2018-04-10T00:08:06.301Z,14.90
2018-04-10T00:10:35.342Z,14.90
2018-04-10T00:13:03.638Z,14.80
2018-04-10T00:15:31.917Z,14.80
2018-04-10T00:18:00.219Z,14.80
2018-04-10T00:20:28.493Z,14.80
2018-04-10T00:22:56.866Z,14.80
2018-04-10T00:25:25.147Z,14.80
2018-04-10T00:27:53.441Z,14.70
2018-04-10T00:30:21.718Z,14.70
2018-04-10T00:32:50.177Z,14.60
2018-04-10T00:35:18.429Z,14.70
2018-04-10T00:37:46.736Z,14.60
2018-04-10T00:40:15.012Z,14.70
2018-04-10T00:42:43.305Z,14.70
2018-04-10T00:45:11.582Z,14.70
2018-04-10T00:47:39.950Z,14.60
2018-04-10T00:50:08.231Z,14.60
2018-04-10T00:52:36.535Z,14.60
2018-04-10T00:55:05.604Z,14.70
2018-04-10T00:57:33.878Z,14.70
2018-04-10T01:00:02.197Z,14.70
2018-04-10T01:02:30.552Z,14.70
2018-04-10T01:04:59.621Z,14.60
2018-04-10T01:07:27.905Z,14.60
2018-04-10T01:09:56.278Z,14.60
2018-04-10T01:12:24.759Z,14.60
2018-04-10T01:14:53.242Z,14.60
2018-04-10T01:17:21.542Z,14.70
2018-04-10T01:19:49.824Z,14.70
2018-04-10T01:22:18.867Z,14.70
2018-04-10T01:24:47.267Z,14.70
2018-04-10T01:27:15.651Z,14.70
2018-04-10T01:29:44.133Z,14.80
2018-04-10T01:32:12.409Z,14.80
2018-04-10T01:34:40.828Z,14.70
2018-04-10T01:37:09.870Z,14.70
2018-04-10T01:39:38.171Z,14.70
2018-04-10T01:42:06.441Z,14.70
2018-04-10T01:44:34.819Z,14.70
2018-04-10T01:47:03.179Z,14.60
2018-04-10T01:49:31.666Z,14.70
2018-04-10T01:52:00.060Z,14.70
2018-04-10T01:54:28.438Z,14.70
2018-04-10T01:56:56.799Z,14.70
2018-04-10T01:59:25.200Z,14.70
2018-04-10T02:01:53.463Z,14.70
2018-04-10T02:04:21.759Z,14.70
2018-04-10T02:06:50.116Z,14.60
2018-04-10T02:09:18.412Z,14.60
2018-04-10T02:11:46.769Z,14.50
2018-04-10T02:14:15.070Z,14.40
2018-04-10T02:16:44.866Z,14.40
2018-04-10T02:19:13.159Z,14.40
2018-04-10T02:21:41.424Z,14.40
2018-04-10T02:24:09.904Z,14.30
2018-04-10T02:26:38.188Z,14.30
2018-04-10T02:29:06.455Z,14.20
2018-04-10T02:31:34.754Z,14.20
2018-04-10T02:34:03.057Z,14.10
2018-04-10T02:36:31.355Z,14.00
2018-04-10T02:38:59.628Z,14.00
2018-04-10T02:41:27.922Z,14.00
2018-04-10T02:43:56.189Z,13.90
2018-04-10T02:46:24.492Z,14.00
2018-04-10T02:48:52.880Z,13.90
2018-04-10T02:51:22.682Z,13.90
2018-04-10T02:53:50.963Z,13.90
2018-04-10T02:56:19.248Z,13.80
2018-04-10T02:58:47.627Z,13.90
2018-04-10T03:01:16.008Z,13.80
2018-04-10T03:03:44.281Z,13.70
2018-04-10T03:06:12.655Z,13.70
2018-04-10T03:08:40.966Z,13.80
2018-04-10T03:11:09.240Z,13.80
2018-04-10T03:13:38.273Z,13.70
2018-04-10T03:16:06.797Z,13.70
2018-04-10T03:18:35.188Z,13.80
2018-04-10T03:21:03.481Z,13.80
2018-04-10T03:23:32.549Z,13.70
2018-04-10T03:26:00.870Z,13.70
2018-04-10T03:28:29.903Z,13.70
2018-04-10T03:30:58.217Z,13.70
2018-04-10T03:33:26.577Z,13.70
2018-04-10T03:35:54.826Z,13.70
2018-04-10T03:38:23.125Z,13.60
2018-04-10T03:40:51.380Z,13.50
2018-04-10T03:43:19.697Z,13.50
2018-04-10T03:45:47.970Z,13.40
2018-04-10T03:48:16.343Z,13.50
2018-04-10T03:50:44.720Z,13.50
2018-04-10T03:53:13.122Z,13.50
2018-04-10T03:55:41.446Z,13.60
2018-04-10T03:58:10.483Z,13.50
2018-04-10T04:00:38.867Z,13.40
2018-04-10T04:03:07.234Z,13.50
2018-04-10T04:05:35.530Z,13.50
2018-04-10T04:08:03.892Z,13.50
2018-04-10T04:10:32.163Z,13.50
2018-04-10T04:13:00.559Z,13.50
2018-04-10T04:15:29.202Z,13.60
2018-04-10T04:17:57.846Z,13.40
2018-04-10T04:20:38.894Z,13.50
2018-04-10T04:23:07.284Z,13.40
2018-04-10T04:25:35.656Z,13.40
2018-04-10T04:28:03.945Z,13.40
2018-04-10T04:30:32.231Z,13.40
2018-04-10T04:33:00.582Z,13.40
2018-04-10T04:35:28.914Z,13.40
2018-04-10T04:37:57.205Z,13.40
2018-04-10T04:40:26.267Z,13.50
2018-04-10T04:42:54.561Z,13.40
2018-04-10T04:45:22.822Z,13.40
2018-04-10T04:47:52.634Z,13.40
2018-04-10T04:50:20.906Z,13.40
2018-04-10T04:52:49.299Z,13.50
2018-04-10T04:55:17.663Z,13.60
2018-04-10T04:57:46.054Z,13.60
2018-04-10T05:00:14.351Z,13.60
2018-04-10T05:02:43.428Z,13.60
2018-04-10T05:05:11.737Z,13.60
2018-04-10T05:07:40.797Z,13.60
2018-04-10T05:10:09.082Z,13.60
2018-04-10T05:12:37.451Z,13.60
2018-04-10T05:15:06.530Z,13.70
2018-04-10T05:17:34.815Z,13.60
2018-04-10T05:20:03.107Z,13.70
2018-04-10T05:22:31.369Z,13.80
2018-04-10T05:24:59.757Z,13.90
2018-04-10T05:27:28.017Z,13.90
2018-04-10T05:29:56.436Z,13.90
2018-04-10T05:32:24.796Z,13.80
2018-04-10T05:34:53.078Z,13.90
2018-04-10T05:37:21.350Z,13.80
2018-04-10T05:39:49.817Z,13.90
2018-04-10T05:42:18.105Z,14.00
2018-04-10T05:44:46.487Z,14.00
2018-04-10T05:47:14.867Z,14.00
2018-04-10T05:49:43.166Z,14.10
2018-04-10T05:52:11.442Z,14.10
2018-04-10T05:54:40.310Z,14.10
2018-04-10T05:57:08.614Z,14.10
2018-04-10T05:59:36.986Z,14.20
2018-04-10T06:02:06.053Z,14.30
2018-04-10T06:04:34.363Z,14.30
2018-04-10T06:07:02.721Z,14.40
2018-04-10T06:09:31.740Z,14.30
2018-04-10T06:12:00.034Z,14.30
2018-04-10T06:14:28.307Z,14.40
2018-04-10T06:16:57.402Z,14.50
2018-04-10T06:19:25.746Z,14.50
2018-04-10T06:21:54.038Z,14.70
2018-04-10T06:24:23.089Z,14.80
2018-04-10T06:26:51.395Z,14.80
2018-04-10T06:29:19.776Z,14.70
2018-04-10T06:31:48.154Z,14.70
2018-04-10T06:34:16.533Z,14.80
2018-04-10T06:36:44.826Z,14.80
2018-04-10T06:39:13.293Z,14.70
2018-04-10T06:41:41.983Z,14.80
2018-04-10T06:44:10.463Z,14.90
2018-04-10T06:46:38.769Z,15.00
2018-04-10T06:49:07.836Z,15.20
2018-04-10T06:51:36.217Z,15.20
2018-04-10T06:54:04.469Z,15.30
2018-04-10T06:56:32.870Z,15.50
2018-04-10T06:59:01.356Z,15.60
2018-04-10T07:01:29.638Z,15.60
2018-04-10T07:03:58.006Z,15.70
2018-04-10T07:06:26.308Z,15.80
2018-04-10T07:08:54.680Z,16.00
2018-04-10T07:11:22.946Z,16.10
2018-04-10T07:13:51.258Z,16.30
2018-04-10T07:16:20.316Z,16.50
2018-04-10T07:18:48.659Z,16.50
2018-04-10T07:21:16.974Z,16.60
2018-04-10T07:23:45.278Z,16.70
2018-04-10T07:26:14.314Z,16.80
2018-04-10T07:28:42.728Z,16.70
2018-04-10T07:31:11.006Z,16.90
2018-04-10T07:33:39.378Z,17.00
2018-04-10T07:36:07.763Z,17.00
2018-04-10T07:38:36.043Z,17.10
2018-04-10T07:41:04.318Z,17.20
2018-04-10T07:43:32.799Z,17.30
2018-04-10T07:46:01.074Z,17.30
2018-04-10T07:48:29.385Z,17.40
2018-04-10T07:50:58.409Z,17.60
2018-04-10T07:53:26.708Z,17.50
2018-04-10T07:55:54.977Z,17.70
2018-04-10T07:58:23.279Z,17.80
2018-04-10T08:00:51.562Z,17.90
2018-04-10T08:03:19.950Z,18.10
2018-04-10T08:05:48.316Z,18.20
2018-04-10T08:08:16.615Z,18.30
2018-04-10T08:10:44.886Z,18.50
2018-04-10T08:13:13.251Z,18.60
2018-04-10T08:15:41.507Z,18.70
2018-04-10T08:18:09.774Z,18.70
2018-04-10T08:20:38.073Z,18.80
2018-04-10T08:23:06.352Z,18.90
2018-04-10T08:25:34.664Z,18.90
2018-04-10T08:28:02.938Z,19.10
2018-04-10T08:30:32.114Z,19.40
2018-04-10T08:33:00.381Z,19.30
2018-04-10T08:35:28.768Z,19.50
2018-04-10T08:37:57.076Z,19.50
2018-04-10T08:40:25.527Z,19.50
2018-04-10T08:42:53.785Z,19.40
2018-04-10T08:45:22.091Z,19.60
2018-04-10T08:47:50.460Z,19.40
2018-04-10T08:50:18.750Z,19.40
2018-04-10T08:52:47.874Z,19.60
2018-04-10T08:55:17.646Z,19.70
2018-04-10T08:57:45.921Z,19.70
2018-04-10T09:00:14.316Z,19.80
2018-04-10T09:02:42.589Z,20.10
2018-04-10T09:05:10.918Z,20.30
2018-04-10T09:07:39.214Z,20.30
2018-04-10T09:10:07.498Z,20.50
2018-04-10T09:12:35.778Z,20.50
2018-04-10T09:15:04.202Z,20.60
2018-04-10T09:17:33.227Z,20.60
2018-04-10T09:20:01.496Z,20.60
2018-04-10T09:22:29.801Z,20.70
2018-04-10T09:24:58.085Z,20.80
2018-04-10T09:27:26.373Z,20.90
2018-04-10T09:29:54.648Z,21.00
2018-04-10T09:32:23.022Z,21.10
2018-04-10T09:34:51.290Z,21.10
2018-04-10T09:37:19.594Z,21.30
2018-04-10T09:39:47.866Z,21.30
2018-04-10T09:42:16.241Z,21.30
2018-04-10T09:44:44.622Z,21.20
2018-04-10T09:47:12.897Z,21.40
2018-04-10T09:49:41.282Z,21.40
2018-04-10T09:52:09.579Z,21.50
2018-04-10T09:54:37.853Z,21.70
2018-04-10T09:57:06.910Z,21.70
2018-04-10T09:59:35.210Z,21.70
2018-04-10T10:02:03.582Z,21.90
2018-04-10T10:04:33.106Z,22.20
2018-04-10T10:07:01.398Z,22.30
2018-04-10T10:09:30.440Z,22.50
2018-04-10T10:11:58.730Z,22.50
2018-04-10T10:14:26.997Z,22.40
2018-04-10T10:16:55.297Z,22.40
2018-04-10T10:19:23.691Z,22.50
2018-04-10T10:21:52.010Z,22.60
2018-04-10T10:24:20.282Z,22.90
2018-04-10T10:26:48.617Z,23.10
2018-04-10T10:29:16.903Z,23.20
2018-04-10T10:31:45.182Z,23.20
2018-04-10T10:34:13.539Z,23.30
2018-04-10T10:36:41.845Z,23.50
2018-04-10T10:39:10.151Z,23.50
2018-04-10T10:41:39.208Z,23.80
2018-04-10T10:44:07.573Z,23.80
2018-04-10T10:46:35.957Z,23.80
2018-04-10T10:49:04.242Z,23.80
2018-04-10T10:51:32.515Z,23.80
2018-04-10T10:54:00.805Z,23.90
2018-04-10T10:56:29.162Z,23.90
2018-04-10T10:58:57.462Z,24.00
2018-04-10T11:01:26.533Z,23.80
2018-04-10T11:03:54.921Z,23.70
2018-04-10T11:06:23.187Z,23.80
2018-04-10T11:08:51.491Z,23.80
2018-04-10T11:11:20.534Z,23.90
2018-04-10T11:13:48.819Z,23.90
2018-04-10T11:16:17.098Z,24.00
2018-04-10T11:18:45.503Z,24.20
2018-04-10T11:21:13.761Z,24.40
2018-04-10T11:23:42.061Z,24.50
2018-04-10T11:26:10.318Z,24.70
2018-04-10T11:28:38.641Z,24.70
2018-04-10T11:31:07.685Z,25.00
2018-04-10T11:33:36.082Z,25.00
2018-04-10T11:36:04.344Z,25.20
2018-04-10T11:38:33.354Z,25.20
2018-04-10T11:41:01.728Z,25.30
2018-04-10T11:43:30.000Z,25.40
2018-04-10T11:45:58.333Z,25.50
2018-04-10T11:48:26.618Z,25.50
2018-04-10T11:50:54.910Z,25.60
2018-04-10T11:53:23.183Z,25.40
2018-04-10T11:55:51.477Z,25.50
2018-04-10T11:58:19.750Z,25.70
2018-04-10T12:00:48.151Z,25.80
2018-04-10T12:03:16.424Z,25.70
2018-04-10T12:05:44.907Z,25.60
2018-04-10T12:08:13.172Z,25.60
2018-04-10T12:10:41.484Z,25.80
2018-04-10T12:13:11.263Z,25.90
2018-04-10T12:15:39.568Z,25.90
2018-04-10T12:18:08.038Z,26.00
2018-04-10T12:20:36.411Z,26.20
2018-04-10T12:23:04.895Z,26.40
2018-04-10T12:25:33.187Z,26.70
2018-04-10T12:28:02.269Z,26.70
2018-04-10T12:30:30.647Z,26.60
2018-04-10T12:32:58.940Z,26.50
2018-04-10T12:35:27.200Z,26.40
2018-04-10T12:37:55.583Z,26.00
2018-04-10T12:40:24.063Z,25.70
2018-04-10T12:42:52.341Z,26.10
2018-04-10T12:45:20.618Z,26.30
2018-04-10T12:47:48.906Z,26.60
2018-04-10T12:50:17.197Z,26.80
2018-04-10T12:52:45.548Z,27.10
2018-04-10T12:55:13.773Z,27.20
2018-04-10T12:57:42.078Z,27.30
2018-04-10T13:00:10.878Z,26.80
2018-04-10T13:02:39.167Z,26.90
2018-04-10T13:05:07.434Z,27.40
2018-04-10T13:07:35.757Z,28.00
2018-04-10T13:10:04.106Z,28.20
2018-04-10T13:12:32.387Z,29.20
2018-04-10T13:15:00.656Z,29.00
2018-04-10T13:17:29.044Z,30.30
2018-04-10T13:19:57.317Z,31.30
2018-04-10T13:22:25.607Z,31.60
2018-04-10T13:24:53.869Z,32.70
2018-04-10T13:27:22.252Z,34.50
2018-04-10T13:29:50.513Z,35.50
2018-04-10T13:32:18.830Z,37.30
2018-04-10T13:34:47.861Z,38.70
2018-04-10T13:37:16.182Z,38.60
2018-04-10T13:39:44.456Z,40.70
2018-04-10T13:42:12.783Z,39.50
2018-04-10T13:44:41.119Z,38.80
2018-04-10T13:47:09.378Z,38.10
2018-04-10T13:49:37.682Z,37.10
2018-04-10T13:52:06.047Z,36.00
2018-04-10T13:54:34.530Z,35.90
2018-04-10T13:57:02.819Z,35.90
2018-04-10T13:59:31.627Z,36.30
2018-04-10T14:02:00.179Z,36.70
2018-04-10T14:04:28.466Z,36.60
2018-04-10T14:06:56.755Z,36.30
2018-04-10T14:09:25.967Z,35.60
2018-04-10T14:11:55.129Z,35.80
2018-04-10T14:14:23.508Z,35.80
2018-04-10T14:16:51.800Z,35.80
2018-04-10T14:19:20.120Z,36.60
2018-04-10T14:21:48.404Z,36.00
2018-04-10T14:24:16.711Z,36.00
2018-04-10T14:26:44.978Z,35.80
2018-04-10T14:29:13.470Z,36.10
2018-04-10T14:31:41.757Z,35.30
2018-04-10T14:34:10.050Z,33.90
2018-04-10T14:36:38.327Z,33.50
2018-04-10T14:39:06.618Z,34.00
2018-04-10T14:41:35.683Z,35.20
2018-04-10T14:44:03.979Z,35.20
2018-04-10T14:46:32.256Z,35.10
2018-04-10T14:49:00.635Z,34.90
2018-04-10T14:51:28.911Z,35.20
2018-04-10T14:53:57.212Z,35.50
2018-04-10T14:56:26.246Z,34.10
2018-04-10T14:58:54.547Z,34.00
2018-04-10T15:01:22.813Z,33.50
2018-04-10T15:03:51.213Z,32.60
2018-04-10T15:06:19.569Z,32.00
2018-04-10T15:08:47.844Z,31.50
2018-04-10T15:11:16.154Z,32.00
2018-04-10T15:13:44.424Z,32.30
2018-04-10T15:16:12.799Z,32.90
2018-04-10T15:18:41.067Z,33.10
2018-04-10T15:21:09.554Z,32.90
2018-04-10T15:23:37.824Z,33.20
2018-04-10T15:26:06.533Z,34.20
2018-04-10T15:28:34.898Z,33.80
2018-04-10T15:31:03.265Z,33.00
2018-04-10T15:33:31.602Z,33.80
2018-04-10T15:36:00.668Z,33.00
2018-04-10T15:38:28.938Z,33.00
2018-04-10T15:40:57.243Z,32.20
2018-04-10T15:43:26.273Z,31.20
2018-04-10T15:45:54.572Z,31.10
2018-04-10T15:48:22.835Z,30.90
2018-04-10T15:50:51.128Z,30.40
2018-04-10T15:53:19.563Z,30.90
2018-04-10T15:55:47.870Z,31.80
2018-04-10T15:58:16.217Z,31.60
2018-04-10T16:00:44.454Z,31.90
2018-04-10T16:03:12.731Z,31.80
2018-04-10T16:05:40.990Z,31.60
2018-04-10T16:08:09.280Z,31.70
2018-04-10T16:10:37.559Z,31.80
2018-04-10T16:13:05.877Z,32.20
2018-04-10T16:15:34.256Z,32.20
2018-04-10T16:18:02.515Z,32.30
2018-04-10T16:20:31.554Z,31.80
2018-04-10T16:22:59.857Z,31.80
2018-04-10T16:25:28.119Z,31.80
2018-04-10T16:27:56.508Z,31.70
2018-04-10T16:30:24.798Z,31.10
2018-04-10T16:32:53.135Z,30.80
2018-04-10T16:35:21.391Z,30.70
2018-04-10T16:37:49.747Z,30.40
2018-04-10T16:40:18.023Z,30.10
2018-04-10T16:42:46.328Z,30.10
2018-04-10T16:45:15.357Z,29.90
2018-04-10T16:47:43.757Z,29.90
2018-04-10T16:50:12.035Z,29.70
2018-04-10T16:52:40.315Z,29.10
2018-04-10T16:55:08.694Z,28.80
2018-04-10T16:57:37.068Z,28.20
2018-04-10T17:00:05.317Z,27.60
2018-04-10T17:02:33.620Z,27.20
2018-04-10T17:05:01.923Z,26.80
2018-04-10T17:07:31.102Z,26.20
2018-04-10T17:09:59.361Z,26.20
2018-04-10T17:12:27.774Z,26.00
2018-04-10T17:14:56.062Z,25.90
2018-04-10T17:17:25.099Z,25.40
2018-04-10T17:19:53.382Z,25.30
2018-04-10T17:22:21.655Z,25.20
2018-04-10T17:24:49.997Z,24.90
2018-04-10T17:27:18.239Z,24.80
2018-04-10T17:29:46.531Z,24.80
2018-04-10T17:32:14.789Z,24.70
2018-04-10T17:34:43.075Z,24.70
2018-04-10T17:37:11.454Z,24.60
2018-04-10T17:39:39.773Z,24.20
2018-04-10T17:42:08.822Z,23.90
2018-04-10T17:44:37.105Z,23.80
2018-04-10T17:47:05.377Z,23.60
2018-04-10T17:49:33.706Z,23.30
2018-04-10T17:52:02.738Z,23.10
2018-04-10T17:54:31.061Z,23.10
2018-04-10T17:56:59.321Z,23.00
2018-04-10T17:59:27.684Z,22.80
2018-04-10T18:01:55.947Z,22.70
2018-04-10T18:04:24.235Z,22.60
2018-04-10T18:06:52.507Z,22.30
2018-04-10T18:09:20.794Z,22.20
2018-04-10T18:11:49.085Z,22.10
2018-04-10T18:14:17.382Z,22.00
2018-04-10T18:16:46.441Z,21.80
2018-04-10T18:19:14.727Z,21.70
2018-04-10T18:21:42.999Z,21.60
2018-04-10T18:24:11.316Z,21.50
2018-04-10T18:26:40.341Z,20.90
2018-04-10T18:29:08.612Z,20.80
2018-04-10T18:31:36.921Z,20.50
2018-04-10T18:34:05.185Z,20.20
2018-04-10T18:36:33.477Z,19.70
2018-04-10T18:39:01.960Z,19.30
2018-04-10T18:41:30.256Z,19.20
2018-04-10T18:43:58.621Z,19.10
2018-04-10T18:46:26.918Z,19.00
2018-04-10T18:48:55.274Z,18.70
2018-04-10T18:51:23.667Z,18.50
2018-04-10T18:53:52.026Z,18.10
2018-04-10T18:56:20.329Z,17.90
2018-04-10T18:58:48.659Z,17.70
2018-04-10T19:01:17.072Z,17.60
2018-04-10T19:03:45.371Z,17.40
2018-04-10T19:06:13.684Z,17.20
2018-04-10T19:08:41.955Z,17.00
2018-04-10T19:11:10.689Z,16.90
2018-04-10T19:13:38.952Z,16.80
2018-04-10T19:16:07.956Z,16.70
2018-04-10T19:18:36.647Z,16.50
2018-04-10T19:21:05.741Z,16.30
2018-04-10T19:23:34.019Z,16.30
2018-04-10T19:26:03.154Z,16.20
2018-04-10T19:28:32.187Z,15.90
2018-04-10T19:31:00.986Z,15.90
2018-04-10T19:33:29.410Z,15.80
2018-04-10T19:35:58.695Z,15.60
2018-04-10T19:38:27.163Z,15.60
2018-04-10T19:40:55.459Z,15.50
2018-04-10T19:43:23.810Z,15.40
2018-04-10T19:45:52.090Z,15.40
2018-04-10T19:48:20.430Z,15.30
2018-04-10T19:50:48.750Z,15.30
2018-04-10T19:53:17.079Z,15.20
2018-04-10T19:55:46.132Z,15.10
2018-04-10T19:58:14.410Z,15.10
2018-04-10T20:00:42.690Z,15.00
2018-04-10T20:03:11.003Z,14.90
2018-04-10T20:05:40.034Z,14.80
2018-04-10T20:08:08.317Z,14.80
2018-04-10T20:10:36.586Z,14.80
2018-04-10T20:13:04.874Z,14.70
2018-04-10T20:15:33.174Z,14.70
2018-04-10T20:18:01.474Z,14.60
2018-04-10T20:20:30.511Z,14.60
2018-04-10T20:22:58.817Z,14.60
2018-04-10T20:25:27.083Z,14.60
2018-04-10T20:27:55.385Z,14.50
2018-04-10T20:30:23.649Z,14.50
2018-04-10T20:32:52.013Z,14.40
2018-04-10T20:35:20.407Z,14.40
2018-04-10T20:37:48.792Z,14.40
2018-04-10T20:40:17.060Z,14.30
2018-04-10T20:42:45.344Z,14.30
2018-04-10T20:45:13.718Z,14.30
2018-04-10T20:47:42.026Z,14.30
2018-04-10T20:50:10.302Z,14.30
2018-04-10T20:52:38.587Z,14.30
2018-04-10T20:55:07.622Z,14.20
2018-04-10T20:57:35.889Z,14.20
2018-04-10T21:00:04.175Z,14.20
2018-04-10T21:02:32.446Z,14.10
2018-04-10T21:05:00.856Z,14.10
2018-04-10T21:07:29.128Z,14.10
2018-04-10T21:09:57.430Z,14.10
2018-04-10T21:12:25.822Z,14.20
2018-04-10T21:14:54.170Z,14.20
2018-04-10T21:17:22.538Z,14.20
2018-04-10T21:19:50.827Z,14.20
2018-04-10T21:22:19.207Z,14.20
2018-04-10T21:24:47.586Z,14.20
2018-04-10T21:27:15.859Z,14.20
2018-04-10T21:29:44.159Z,14.20
2018-04-10T21:32:12.436Z,14.10
2018-04-10T21:34:40.805Z,14.00
2018-04-10T21:37:09.081Z,14.00
2018-04-10T21:39:37.395Z,14.10
2018-04-10T21:42:06.438Z,14.10
2018-04-10T21:44:34.844Z,14.10
2018-04-10T21:47:03.123Z,14.20
2018-04-10T21:49:31.411Z,14.20
2018-04-10T21:52:00.458Z,14.20
2018-04-10T21:54:28.748Z,14.10
2018-04-10T21:56:57.049Z,14.10
2018-04-10T21:59:25.415Z,14.10
2018-04-10T22:01:53.695Z,14.00
2018-04-10T22:04:21.965Z,14.00
2018-04-10T22:06:50.253Z,13.90
2018-04-10T22:09:18.633Z,13.90
2018-04-10T22:11:46.926Z,13.80
2018-04-10T22:14:15.999Z,13.80
2018-04-10T22:16:44.479Z,13.80
2018-04-10T22:19:12.726Z,13.70
2018-04-10T22:21:41.016Z,13.70
2018-04-10T22:24:09.309Z,13.70
2018-04-10T22:26:37.611Z,13.70
2018-04-10T22:29:06.723Z,13.70
2018-04-10T22:31:34.979Z,13.70
2018-04-10T22:34:03.224Z,13.80
2018-04-10T22:36:31.585Z,13.80
2018-04-10T22:38:59.870Z,13.80
2018-04-10T22:41:28.294Z,13.80
2018-04-10T22:43:56.530Z,13.80
2018-04-10T22:46:24.831Z,13.80
2018-04-10T22:48:53.870Z,13.70
2018-04-10T22:51:22.171Z,13.70
2018-04-10T22:53:50.446Z,13.60
2018-04-10T22:56:18.839Z,13.50
2018-04-10T22:58:47.126Z,13.50
2018-04-10T23:01:15.402Z,13.40
2018-04-10T23:03:43.701Z,13.50
2018-04-10T23:06:12.865Z,13.50
2018-04-10T23:08:41.131Z,13.50
2018-04-10T23:11:09.430Z,13.60
2018-04-10T23:13:37.711Z,13.60
2018-04-10T23:16:06.947Z,13.70
2018-04-10T23:18:36.012Z,13.60
2018-04-10T23:21:04.367Z,13.60
2018-04-10T23:23:32.648Z,13.60
2018-04-10T23:26:00.976Z,13.60
2018-04-10T23:28:29.294Z,13.70
2018-04-10T23:30:57.744Z,13.70
2018-04-10T23:33:26.009Z,13.70
2018-04-10T23:35:54.303Z,13.70
2018-04-10T23:38:23.474Z,13.70
2018-04-10T23:43:30.338Z,13.80
2018-04-10T23:45:58.618Z,13.80
2018-04-10T23:48:26.916Z,13.80
2018-04-10T23:50:55.175Z,13.80
2018-04-10T23:53:23.477Z,13.90
2018-04-10T23:55:51.761Z,13.90
2018-04-10T23:58:20.234Z,13.90
